createdAt,value
2023-03-05T15:44:24.681Z,75.74
2023-03-05T15:49:27.811Z,75.87
2023-03-05T15:54:31.515Z,75.61
2023-03-05T15:59:36.036Z,74.42
2023-03-05T16:04:39.294Z,75.17
2023-03-05T16:09:45.580Z,75.87
2023-03-05T16:14:52.210Z,76.56
2023-03-05T16:19:57.074Z,76.30
2023-03-05T16:25:01.399Z,76.70
2023-03-05T16:30:07.237Z,77.18
2023-03-05T16:35:12.057Z,77.28
2023-03-05T16:40:15.894Z,78.27
2023-03-05T16:45:20.619Z,77.97
2023-03-05T16:50:23.809Z,78.37
2023-03-05T16:55:26.964Z,78.65
2023-03-05T17:00:31.651Z,78.68
2023-03-05T17:05:37.184Z,79.20
2023-03-05T17:10:40.353Z,78.36
2023-03-05T17:15:44.917Z,79.01
2023-03-05T17:20:48.108Z,78.15
2023-03-05T17:25:51.781Z,78.06
2023-03-05T17:31:00.162Z,78.35
2023-03-05T17:36:04.005Z,78.71
2023-03-05T17:41:07.194Z,78.78
2023-03-05T17:46:13.003Z,78.88
2023-03-05T17:51:17.544Z,79.05
2023-03-05T17:56:22.279Z,78.97
2023-03-05T18:01:29.197Z,79.32
2023-03-05T18:06:32.847Z,80.04
2023-03-05T18:11:36.009Z,79.48
2023-03-05T18:16:40.589Z,79.76
2023-03-05T18:21:44.326Z,79.63
2023-03-05T18:26:47.435Z,80.04
2023-03-05T18:31:52.017Z,80.62
2023-03-05T18:36:55.436Z,81.15
2023-03-05T18:41:58.701Z,81.15
2023-03-05T18:47:03.253Z,80.70
2023-03-05T18:52:06.708Z,80.95
2023-03-05T18:57:09.865Z,80.88
2023-03-05T19:02:16.886Z,80.86
2023-03-05T19:07:20.113Z,80.50
2023-03-05T19:12:25.001Z,80.64
2023-03-05T19:17:30.501Z,80.28
2023-03-05T19:22:34.150Z,80.17
2023-03-05T19:27:37.591Z,80.58
2023-03-05T19:32:42.166Z,81.07
2023-03-05T19:37:46.103Z,80.47
2023-03-05T19:42:49.309Z,80.73
2023-03-05T19:47:53.884Z,81.61
2023-03-05T19:52:57.035Z,80.36
2023-03-05T19:58:00.195Z,81.02
2023-03-05T20:03:04.907Z,81.51
2023-03-05T20:08:08.053Z,81.22
2023-03-05T20:13:11.225Z,81.10
2023-03-05T20:18:15.779Z,81.42
2023-03-05T20:23:18.940Z,81.13
2023-03-05T20:28:26.054Z,81.57
2023-03-05T20:33:30.967Z,81.81
2023-03-05T20:38:34.196Z,81.99
2023-03-05T20:43:40.945Z,81.32
2023-03-05T20:48:46.021Z,81.76
2023-03-05T20:53:49.610Z,82.21
2023-03-05T20:58:52.770Z,81.62
2023-03-05T21:03:58.406Z,82.38
2023-03-05T21:09:02.255Z,82.38
2023-03-05T21:14:05.428Z,81.59
2023-03-05T21:19:09.954Z,82.17
2023-03-05T21:24:13.084Z,82.02
2023-03-05T21:29:16.246Z,82.19
2023-03-05T21:34:20.796Z,81.84
2023-03-05T21:39:23.955Z,82.34
2023-03-05T21:44:27.087Z,82.29
2023-03-05T21:49:31.729Z,81.92
2023-03-05T21:54:34.871Z,81.86
2023-03-05T21:59:41.285Z,81.04
2023-03-05T22:04:46.066Z,81.54
2023-03-05T22:09:49.240Z,81.37
2023-03-05T22:14:52.368Z,81.33
2023-03-05T22:19:56.900Z,81.17
2023-03-05T22:25:00.113Z,81.42
2023-03-05T22:30:03.639Z,81.53
2023-03-05T22:35:12.606Z,81.65
2023-03-05T22:40:17.951Z,81.48
2023-03-05T22:45:21.171Z,80.98
2023-03-05T22:50:25.720Z,81.28
2023-03-05T22:55:28.885Z,80.79
2023-03-05T23:00:32.117Z,80.97
2023-03-05T23:05:39.098Z,81.26
2023-03-05T23:10:42.265Z,80.70
2023-03-05T23:15:45.463Z,80.57
2023-03-05T23:20:50.062Z,80.63
2023-03-05T23:25:54.082Z,80.62
2023-03-05T23:30:58.861Z,80.99
2023-03-05T23:36:03.610Z,81.04
2023-03-05T23:41:09.655Z,80.98
2023-03-05T23:46:13.592Z,81.08
2023-03-05T23:51:19.205Z,81.29
2023-03-05T23:56:22.354Z,81.12
